createdAt,value
2023-03-26T00:02:31.395Z,9.30
2023-03-26T00:07:30.236Z,9.30
2023-03-26T00:12:29.102Z,9.21
2023-03-26T00:17:28.431Z,9.33
2023-03-26T00:22:27.276Z,9.34
2023-03-26T00:27:27.719Z,9.40
2023-03-26T00:32:28.658Z,9.32
2023-03-26T00:37:27.713Z,9.30
2023-03-26T00:42:26.683Z,9.23
2023-03-26T00:47:27.517Z,9.19
2023-03-26T00:52:28.653Z,8.88
2023-03-26T00:57:35.835Z,8.90
2023-03-26T01:02:35.276Z,8.92
2023-03-26T01:07:35.242Z,8.98
2023-03-26T01:12:34.290Z,8.99
2023-03-26T01:17:38.019Z,9.02
2023-03-26T01:22:37.766Z,9.14
2023-03-26T01:27:41.163Z,9.10
2023-03-26T01:32:48.790Z,9.16
2023-03-26T01:38:10.998Z,9.01
2023-03-26T01:43:29.241Z,8.99
2023-03-26T01:48:36.324Z,8.87
2023-03-26T01:53:41.676Z,8.91
2023-03-26T01:58:59.730Z,8.79
2023-03-26T02:04:24.893Z,8.63
2023-03-26T02:09:27.734Z,8.59
2023-03-26T02:14:30.311Z,8.56
2023-03-26T02:19:30.628Z,8.45
2023-03-26T02:24:29.805Z,8.47
2023-03-26T02:29:31.555Z,8.52
2023-03-26T02:34:31.412Z,8.54
2023-03-26T02:39:30.558Z,8.59
2023-03-26T02:44:34.813Z,8.57
2023-03-26T02:49:33.999Z,8.55
2023-03-26T02:54:34.450Z,8.51
2023-03-26T02:59:52.881Z,8.28
2023-03-26T03:05:11.812Z,8.36
2023-03-26T03:15:40.840Z,8.39
2023-03-26T03:20:39.924Z,8.38
2023-03-26T03:25:38.866Z,8.34
2023-03-26T03:30:37.988Z,8.24
2023-03-26T03:35:52.961Z,8.15
2023-03-26T03:40:54.366Z,8.17
2023-03-26T03:45:57.138Z,8.13
2023-03-26T03:51:25.509Z,8.26
2023-03-26T03:56:48.715Z,8.35
2023-03-26T04:02:05.994Z,8.29
2023-03-26T04:07:17.395Z,8.34
2023-03-26T04:12:34.869Z,8.38
2023-03-26T04:17:42.403Z,8.24
2023-03-26T04:22:44.056Z,8.41
2023-03-26T04:27:46.212Z,8.44
2023-03-26T04:33:17.138Z,8.27
2023-03-26T04:38:18.647Z,8.49
2023-03-26T04:43:20.953Z,8.77
2023-03-26T04:48:55.263Z,8.76
2023-03-26T04:53:58.956Z,8.92
2023-03-26T04:59:26.385Z,8.97
2023-03-26T05:04:29.606Z,8.86
2023-03-26T05:09:30.130Z,8.80
2023-03-26T05:14:46.930Z,8.87
2023-03-26T05:19:52.164Z,8.95
2023-03-26T05:24:51.530Z,8.74
2023-03-26T05:29:50.341Z,8.71
2023-03-26T05:34:49.129Z,8.88
2023-03-26T05:39:48.105Z,8.68
2023-03-26T05:45:07.955Z,8.57
2023-03-26T05:50:08.417Z,8.54
2023-03-26T05:55:10.411Z,8.65
2023-03-26T06:00:27.726Z,8.88
2023-03-26T06:05:32.636Z,8.81
2023-03-26T06:11:08.295Z,8.85
2023-03-26T06:16:26.013Z,8.87
2023-03-26T06:21:51.937Z,8.99
2023-03-26T06:26:54.349Z,9.16
2023-03-26T06:32:20.203Z,9.19
2023-03-26T06:37:25.964Z,9.19
2023-03-26T06:43:06.788Z,9.33
2023-03-26T06:48:08.375Z,9.39
2023-03-26T06:53:17.213Z,9.44
2023-03-26T06:58:30.393Z,9.54
2023-03-26T07:03:47.896Z,9.54
2023-03-26T07:09:05.844Z,9.46
2023-03-26T07:14:13.956Z,9.59
2023-03-26T07:19:19.991Z,9.77
2023-03-26T07:24:20.398Z,9.65
2023-03-26T07:29:36.654Z,9.84
2023-03-26T07:35:02.067Z,9.91
2023-03-26T07:40:44.675Z,10.07
2023-03-26T07:46:02.564Z,10.10
2023-03-26T07:51:25.046Z,10.02
2023-03-26T07:56:42.889Z,9.89
2023-03-26T08:02:18.496Z,10.18
2023-03-26T08:07:27.066Z,10.49
2023-03-26T08:13:07.112Z,10.49
2023-03-26T08:18:38.932Z,10.49
2023-03-26T08:24:00.895Z,10.64
2023-03-26T08:29:27.445Z,10.54
2023-03-26T08:34:26.462Z,10.71
2023-03-26T08:39:25.536Z,10.60
2023-03-26T08:45:08.958Z,10.63
2023-03-26T08:50:10.587Z,10.73
2023-03-26T08:55:37.571Z,11.12
2023-03-26T09:01:04.248Z,11.14
2023-03-26T09:06:15.480Z,11.11
2023-03-26T09:11:51.288Z,11.62
2023-03-26T09:17:01.908Z,11.58
2023-03-26T09:22:03.698Z,12.00
2023-03-26T09:27:11.591Z,11.65
2023-03-26T09:32:44.232Z,13.88
2023-03-26T09:37:58.307Z,14.24
2023-03-26T09:43:24.088Z,15.60
2023-03-26T09:49:21.676Z,15.04
2023-03-26T09:54:53.243Z,14.58
2023-03-26T10:00:07.351Z,14.13
2023-03-26T10:05:41.518Z,14.07
2023-03-26T10:10:54.699Z,14.27
2023-03-26T10:16:11.687Z,13.81
2023-03-26T10:21:35.421Z,14.08
2023-03-26T10:27:09.364Z,12.40
2023-03-26T10:32:53.112Z,12.08
2023-03-26T10:38:13.654Z,11.93
2023-03-26T10:43:37.551Z,11.54
2023-03-26T10:48:54.112Z,11.87
2023-03-26T10:54:23.113Z,12.26
2023-03-26T10:59:22.416Z,12.79
2023-03-26T11:04:51.039Z,12.52
2023-03-26T11:09:52.927Z,13.53
2023-03-26T11:15:04.144Z,13.79
2023-03-26T11:20:07.709Z,13.89
2023-03-26T11:25:18.646Z,13.97
2023-03-26T11:31:02.353Z,14.12
2023-03-26T11:36:06.947Z,14.25
2023-03-26T11:41:16.034Z,14.73
2023-03-26T11:46:35.507Z,14.70
2023-03-26T11:51:38.795Z,15.11
2023-03-26T11:57:05.852Z,15.35
2023-03-26T12:02:05.532Z,15.90
2023-03-26T12:07:14.204Z,15.46
2023-03-26T12:12:13.151Z,15.82
2023-03-26T12:17:15.093Z,14.62
2023-03-26T12:22:36.220Z,14.00
2023-03-26T12:27:38.035Z,13.89
2023-03-26T12:32:46.109Z,14.11
2023-03-26T12:37:46.854Z,14.04
2023-03-26T12:44:46.702Z,14.34
2023-03-26T12:48:15.801Z,13.92
2023-03-26T12:53:38.560Z,13.68
2023-03-26T12:58:51.254Z,13.58
2023-03-26T13:04:14.204Z,13.53
2023-03-26T13:09:19.576Z,13.48
2023-03-26T13:14:28.057Z,13.57
2023-03-26T13:19:31.045Z,13.68
2023-03-26T13:24:43.354Z,13.72
2023-03-26T13:29:56.225Z,13.94
2023-03-26T13:35:22.421Z,13.79
2023-03-26T13:40:27.299Z,13.46
2023-03-26T13:45:47.620Z,13.75
2023-03-26T13:50:57.274Z,13.89
2023-03-26T13:55:59.744Z,12.79
2023-03-26T14:01:05.311Z,11.41
2023-03-26T14:06:23.352Z,11.06
2023-03-26T14:11:50.937Z,10.86
2023-03-26T14:17:03.593Z,10.68
2023-03-26T14:22:20.742Z,10.63
2023-03-26T14:27:40.590Z,10.82
2023-03-26T14:32:59.295Z,10.80
2023-03-26T14:38:33.031Z,10.42
2023-03-26T14:43:34.657Z,10.81
2023-03-26T14:48:36.808Z,10.81
2023-03-26T14:53:43.636Z,10.94
2023-03-26T14:59:12.912Z,10.79
2023-03-26T15:04:41.331Z,10.68
2023-03-26T15:10:09.611Z,11.09
2023-03-26T15:15:32.781Z,10.92
2023-03-26T15:20:50.708Z,10.77
2023-03-26T15:25:56.901Z,10.68
2023-03-26T15:31:11.409Z,10.85
2023-03-26T15:36:28.848Z,10.41
2023-03-26T15:41:44.341Z,10.00
2023-03-26T15:46:58.677Z,9.77
2023-03-26T15:52:20.171Z,9.80
2023-03-26T15:57:44.748Z,9.73
2023-03-26T16:02:53.782Z,9.64
2023-03-26T16:08:04.484Z,9.81
2023-03-26T16:13:36.794Z,9.84
2023-03-26T16:18:48.454Z,9.60
2023-03-26T16:23:48.184Z,9.61
2023-03-26T16:28:46.923Z,9.68
2023-03-26T16:34:01.913Z,9.76
2023-03-26T16:39:02.537Z,9.55
2023-03-26T16:44:13.931Z,9.46
2023-03-26T16:49:21.520Z,9.65
2023-03-26T16:54:39.743Z,9.57
2023-03-26T16:59:41.173Z,9.55
2023-03-26T17:04:46.429Z,9.51
2023-03-26T17:09:51.939Z,9.16
2023-03-26T17:14:53.838Z,8.89
2023-03-26T17:20:17.407Z,8.92
2023-03-26T17:25:35.273Z,9.17
2023-03-26T17:30:56.736Z,9.14
2023-03-26T17:36:21.442Z,8.93
2023-03-26T17:41:49.863Z,8.95
2023-03-26T17:46:51.161Z,8.94
2023-03-26T17:52:03.635Z,9.20
2023-03-26T17:57:10.002Z,8.96
2023-03-26T18:02:15.998Z,8.95
2023-03-26T18:07:36.583Z,8.96
2023-03-26T18:13:02.434Z,8.84
2023-03-26T18:18:41.062Z,8.59
2023-03-26T18:23:46.034Z,8.92
2023-03-26T18:28:54.318Z,8.68
2023-03-26T18:33:59.235Z,8.59
2023-03-26T18:38:58.711Z,8.81
2023-03-26T18:44:05.287Z,8.67
2023-03-26T18:49:04.345Z,8.56
2023-03-26T18:54:05.351Z,9.44
2023-03-26T18:59:06.968Z,9.63
2023-03-26T19:04:07.983Z,8.76
2023-03-26T19:09:28.623Z,9.36
2023-03-26T19:14:35.318Z,9.31
2023-03-26T19:19:37.567Z,8.85
2023-03-26T19:24:36.982Z,8.90
2023-03-26T19:29:36.637Z,8.71
2023-03-26T19:34:39.684Z,9.18
2023-03-26T19:39:44.999Z,9.05
2023-03-26T19:44:44.540Z,9.05
2023-03-26T19:50:03.964Z,9.12
2023-03-26T19:55:12.215Z,8.73
2023-03-26T20:00:14.296Z,8.95
2023-03-26T20:05:26.151Z,9.10
2023-03-26T20:10:24.874Z,8.60
2023-03-26T20:15:27.969Z,9.01
2023-03-26T20:20:27.661Z,8.98
2023-03-26T20:25:32.044Z,8.81
2023-03-26T20:30:37.598Z,8.89
2023-03-26T20:35:37.804Z,8.62
2023-03-26T20:40:37.156Z,8.90
2023-03-26T20:45:35.899Z,8.60
2023-03-26T20:50:35.963Z,8.67
2023-03-26T20:55:37.543Z,8.74
2023-03-26T21:00:37.229Z,8.59
2023-03-26T21:05:36.037Z,8.83
2023-03-26T21:10:35.981Z,8.91
2023-03-26T21:15:35.166Z,8.88
2023-03-26T21:20:34.821Z,9.08
2023-03-26T21:26:02.745Z,8.60
2023-03-26T21:31:01.933Z,8.85
2023-03-26T21:36:01.905Z,8.80
2023-03-26T21:41:02.181Z,8.80
2023-03-26T21:46:01.363Z,8.57
2023-03-26T21:51:04.463Z,8.74
2023-03-26T21:56:24.602Z,8.92
2023-03-26T22:01:34.816Z,8.70
2023-03-26T22:06:43.833Z,8.32
2023-03-26T22:11:42.707Z,8.94
2023-03-26T22:16:41.693Z,8.87
2023-03-26T22:21:40.445Z,8.36
2023-03-26T22:26:39.182Z,8.33
2023-03-26T22:31:39.360Z,8.62
2023-03-26T22:42:19.486Z,8.53
2023-03-26T22:47:18.253Z,8.21
2023-03-26T22:52:17.328Z,8.50
2023-03-26T22:57:16.477Z,8.08
2023-03-26T23:02:16.672Z,7.99
2023-03-26T23:07:15.452Z,8.16
2023-03-26T23:12:14.326Z,7.76
2023-03-26T23:17:14.653Z,7.69
2023-03-26T23:22:13.717Z,8.18
2023-03-26T23:27:13.044Z,8.52
2023-03-26T23:32:23.537Z,8.65
2023-03-26T23:37:23.674Z,8.58
2023-03-26T23:42:28.750Z,8.12
2023-03-26T23:47:34.881Z,7.90
2023-03-26T23:52:33.836Z,8.15
2023-03-26T23:57:32.700Z,7.97
